Time;durP1;ratioP1;P1;durP2;ratioP2;P2;SDS_P1;SDS_P2;PMS_P1;PMS_P2;Temp;Humidity;BMP_temperature;BMP_pressure;BME280_temperature;BME280_humidity;BME280_pressure;Samples;Min_cycle;Max_cycle;Signal;HPM_P1;HPM_P2
2022/03/24 00:01:09;;;;;;;;;;;;;;;;;;4970168;28;1326;-68
2022/03/24 00:03:35;;;;;;;;;;;;;;;;;;4969431;28;865;-68
2022/03/24 00:06:02;;;;;;;;;;;;;;;;;;4969249;28;1002;-69
2022/03/24 00:08:28;;;;;;;;;;;;;;;;;;4968941;28;1082;-69
2022/03/24 00:10:54;;;;;;;;;;;;;;;;;;4969065;28;1321;-69
2022/03/24 00:13:22;;;;;;;;;;;;;;;;;;4967990;28;1304;-69
2022/03/24 00:15:48;;;;;;;;;;;;;;;;;;4969286;28;1911;-69
2022/03/24 00:18:14;;;;;;;;;;;;;;;;;;4967786;28;1184;-69
2022/03/24 00:20:40;;;;;;;;;;;;;;;;;;4968724;28;1401;-69
2022/03/24 00:23:07;;;;;;;;;;;;;;;;;;4970507;28;1077;-69
2022/03/24 00:25:33;;;;;;;;;;;;;;;;;;4972525;28;951;-69
2022/03/24 00:28:00;;;;;;;;;;;;;;;;;;4972250;28;1251;-69
2022/03/24 00:30:27;;;;;;;;;;;;;;;;;;4972246;28;1322;-69
2022/03/24 00:32:53;;;;;;;;;;;;;;;;;;4971272;28;1397;-69
2022/03/24 00:35:21;;;;;;;;;;;;;;;;;;4961748;28;1178;-69
2022/03/24 00:37:47;;;;;;;;;;;;;;;;;;4951368;29;1919;-70
2022/03/24 00:40:16;;;;;;;;;;;;;;;;;;4951711;29;1348;-70
2022/03/24 00:42:45;;;;;;;;;;;;;;;;;;4951887;29;1231;-69
2022/03/24 00:45:12;;;;;;;;;;;;;;;;;;4951808;29;1500;-70
2022/03/24 00:47:41;;;;;;;;;;;;;;;;;;4952690;28;848;-69
2022/03/24 00:50:08;;;;;;;;;;;;;;;;;;4951711;28;1354;-70
2022/03/24 00:52:40;;;;;;;;;;;;;;;;;;4952853;28;1070;-70
2022/03/24 00:55:07;;;;;;;;;;;;;;;;;;4951581;29;1149;-69
2022/03/24 00:57:33;;;;;;;;;;;;;;;;;;4951383;28;1946;-69
2022/03/24 01:00:02;;;;;;;;;;;;;;;;;;4951649;29;1410;-69
2022/03/24 01:02:28;;;;;;;;;;;;;;;;;;4952764;28;880;-69
2022/03/24 01:04:56;;;;;;;;;;;;;;;;;;4951563;29;1374;-69
2022/03/24 01:07:23;;;;;;;;;;;;;;;;;;4952461;28;893;-70
2022/03/24 01:09:49;;;;;;;;;;;;;;;;;;4951313;29;1331;-69
2022/03/24 01:12:16;;;;;;;;;;;;;;;;;;4951474;29;813;-69
2022/03/24 01:14:44;;;;;;;;;;;;;;;;;;4951082;28;1199;-69
2022/03/24 01:17:14;;;;;;;;;;;;;;;;;;4951042;29;1978;-69
2022/03/24 01:19:41;;;;;;;;;;;;;;;;;;4951213;29;1444;-68
2022/03/24 01:22:08;;;;;;;;;;;;;;;;;;4952486;28;1058;-69
2022/03/24 01:24:38;;;;;;;;;;;;;;;;;;4951225;29;1129;-70
2022/03/24 01:27:05;;;;;;;;;;;;;;;;;;4950993;29;1121;-70
2022/03/24 01:29:31;;;;;;;;;;;;;;;;;;4943185;28;1599;-69
2022/03/24 01:31:57;;;;;;;;;;;;;;;;;;4947634;29;1176;-69
2022/03/24 01:34:24;;;;;;;;;;;;;;;;;;4939256;28;1175;-70
2022/03/24 01:36:52;;;;;;;;;;;;;;;;;;4971225;28;1914;-69
2022/03/24 01:39:20;;;;;;;;;;;;;;;;;;4969982;28;1386;-69
2022/03/24 01:41:46;;;;;;;;;;;;;;;;;;4970407;28;1686;-70
2022/03/24 01:44:13;;;;;;;;;;;;;;;;;;4970198;28;1209;-69
2022/03/24 01:46:40;;;;;;;;;;;;;;;;;;4969945;28;1275;-69
2022/03/24 01:49:06;;;;;;;;;;;;;;;;;;4969749;28;1470;-69
2022/03/24 01:51:32;;;;;;;;;;;;;;;;;;4969970;28;1439;-69
2022/03/24 01:53:59;;;;;;;;;;;;;;;;;;4969994;28;1362;-69
2022/03/24 01:56:27;;;;;;;;;;;;;;;;;;4970776;28;1910;-69
2022/03/24 01:58:54;;;;;;;;;;;;;;;;;;4986014;28;1093;-69
2022/03/24 02:01:28;;;;;;;;;;;;;;;;;;4969593;28;1404;-69
2022/03/24 02:03:55;;;;;;;;;;;;;;;;;;4970073;28;1172;-69
2022/03/24 02:06:21;;;;;;;;;;;;;;;;;;4969145;28;1198;-69
2022/03/24 02:08:48;;;;;;;;;;;;;;;;;;4969887;28;1342;-69
2022/03/24 02:11:14;;;;;;;;;;;;;;;;;;4969530;28;1334;-69
2022/03/24 02:13:43;;;;;;;;;;;;;;;;;;4969758;28;1375;-69
2022/03/24 02:16:11;;;;;;;;;;;;;;;;;;4969298;28;1914;-68
2022/03/24 02:18:37;;;;;;;;;;;;;;;;;;4969568;28;1199;-68
2022/03/24 02:21:03;;;;;;;;;;;;;;;;;;4970905;28;1277;-69
2022/03/24 02:23:32;;;;;;;;;;;;;;;;;;4970731;28;1061;-69
2022/03/24 02:25:58;;;;;;;;;;;;;;;;;;4970918;28;798;-69
2022/03/24 02:28:25;;;;;;;;;;;;;;;;;;4970537;28;849;-68
2022/03/24 02:30:51;;;;;;;;;;;;;;;;;;4970857;28;1407;-68
2022/03/24 02:33:20;;;;;;;;;;;;;;;;;;4970601;28;1114;-69
2022/03/24 02:35:47;;;;;;;;;;;;;;;;;;4956435;28;1233;-69
2022/03/24 02:38:13;;;;;;;;;;;;;;;;;;4951265;28;1915;-69
2022/03/24 02:40:43;;;;;;;;;;;;;;;;;;4956115;28;1939;-68
2022/03/24 02:43:09;;;;;;;;;;;;;;;;;;4973782;28;1672;-69
2022/03/24 02:45:36;;;;;;;;;;;;;;;;;;5009670;28;1126;-67
2022/03/24 02:48:03;;;;;;;;;;;;;;;;;;5051399;28;1096;-68
2022/03/24 02:50:29;;;;;;;;;;;;;;;;;;5051921;28;1314;-68
2022/03/24 02:52:56;;;;;;;;;;;;;;;;;;5052039;28;1093;-68
2022/03/24 02:55:22;;;;;;;;;;;;;;;;;;5051801;28;1101;-69
2022/03/24 02:57:50;;;;;;;;;;;;;;;;;;5051791;28;1985;-69
2022/03/24 03:00:16;;;;;;;;;;;;;;;;;;5051608;28;1450;-69
2022/03/24 03:02:42;;;;;;;;;;;;;;;;;;5050416;28;1168;-69
2022/03/24 03:05:09;;;;;;;;;;;;;;;;;;5051353;28;1058;-68
2022/03/24 03:07:35;;;;;;;;;;;;;;;;;;5051288;28;1074;-68
2022/03/24 03:10:01;;;;;;;;;;;;;;;;;;5051336;28;1298;-68
2022/03/24 03:12:27;;;;;;;;;;;;;;;;;;5051490;28;1062;-69
2022/03/24 03:14:56;;;;;;;;;;;;;;;;;;5051526;28;1062;-68
2022/03/24 03:17:22;;;;;;;;;;;;;;;;;;5050967;28;1981;-69
2022/03/24 03:19:48;;;;;;;;;;;;;;;;;;5011517;28;1539;-69
2022/03/24 03:22:15;;;;;;;;;;;;;;;;;;4950817;28;1007;-68
2022/03/24 03:24:41;;;;;;;;;;;;;;;;;;4950336;28;911;-68
2022/03/24 03:27:07;;;;;;;;;;;;;;;;;;4950453;28;1062;-69
2022/03/24 03:29:33;;;;;;;;;;;;;;;;;;4950403;28;1376;-68
2022/03/24 03:32:02;;;;;;;;;;;;;;;;;;4950468;28;1082;-68
2022/03/24 03:34:28;;;;;;;;;;;;;;;;;;4950381;28;735;-67
2022/03/24 03:36:55;;;;;;;;;;;;;;;;;;4950052;28;1911;-69
2022/03/24 03:39:22;;;;;;;;;;;;;;;;;;4950311;28;1238;-68
2022/03/24 03:41:48;;;;;;;;;;;;;;;;;;4950111;28;974;-69
2022/03/24 03:44:15;;;;;;;;;;;;;;;;;;4950341;29;1082;-68
2022/03/24 03:46:42;;;;;;;;;;;;;;;;;;4949935;28;1296;-69
2022/03/24 03:49:10;;;;;;;;;;;;;;;;;;4950195;28;1006;-68
2022/03/24 03:51:37;;;;;;;;;;;;;;;;;;4950279;28;1283;-69
2022/03/24 03:54:04;;;;;;;;;;;;;;;;;;4950263;28;923;-68
2022/03/24 03:56:30;;;;;;;;;;;;;;;;;;4949672;28;1011;-70
2022/03/24 03:58:56;;;;;;;;;;;;;;;;;;4949112;28;1920;-69
2022/03/24 04:01:22;;;;;;;;;;;;;;;;;;4950068;29;1301;-68
2022/03/24 04:03:49;;;;;;;;;;;;;;;;;;4950057;29;1078;-68
2022/03/24 04:06:16;;;;;;;;;;;;;;;;;;4949950;28;1070;-69
2022/03/24 04:08:43;;;;;;;;;;;;;;;;;;4950878;28;934;-69
2022/03/24 04:11:09;;;;;;;;;;;;;;;;;;5014341;22;3812;-67
2022/03/24 04:13:36;;;;;;;;;;;;;;;;;;5050400;28;911;-67
2022/03/24 04:16:02;;;;;;;;;;;;;;;;;;5050178;28;1132;-67
2022/03/24 04:18:28;;;;;;;;;;;;;;;;;;5050034;28;1914;-67
2022/03/24 04:20:55;;;;;;;;;;;;;;;;;;5059646;28;1329;-67
2022/03/24 04:23:22;;;;;;;;;;;;;;;;;;5070190;28;1136;-68
2022/03/24 04:25:48;;;;;;;;;;;;;;;;;;5070285;28;986;-68
2022/03/24 04:28:14;;;;;;;;;;;;;;;;;;5069917;28;1085;-68
2022/03/24 04:30:42;;;;;;;;;;;;;;;;;;5070101;28;1387;-68
2022/03/24 04:33:09;;;;;;;;;;;;;;;;;;5070055;28;1077;-69
2022/03/24 04:35:35;;;;;;;;;;;;;;;;;;5070401;28;1085;-70
2022/03/24 04:38:02;;;;;;;;;;;;;;;;;;5069663;28;1977;-68
2022/03/24 04:40:29;;;;;;;;;;;;;;;;;;5070123;28;1305;-67
2022/03/24 04:42:56;;;;;;;;;;;;;;;;;;5070082;28;1077;-68
2022/03/24 04:45:22;;;;;;;;;;;;;;;;;;5070372;28;1073;-68
2022/03/24 04:47:48;;;;;;;;;;;;;;;;;;5070072;28;1125;-67
2022/03/24 04:50:16;;;;;;;;;;;;;;;;;;5070068;28;1347;-67
2022/03/24 04:52:42;;;;;;;;;;;;;;;;;;5070217;28;1136;-68
2022/03/24 04:55:09;;;;;;;;;;;;;;;;;;5070104;28;851;-67
2022/03/24 04:57:37;;;;;;;;;;;;;;;;;;5069697;28;1911;-68
2022/03/24 05:00:03;;;;;;;;;;;;;;;;;;5070058;28;1280;-68
2022/03/24 05:02:30;;;;;;;;;;;;;;;;;;5069980;28;1073;-68
2022/03/24 05:04:56;;;;;;;;;;;;;;;;;;5070091;28;956;-67
2022/03/24 05:07:22;;;;;;;;;;;;;;;;;;5070498;28;954;-67
2022/03/24 05:09:50;;;;;;;;;;;;;;;;;;5072269;28;1272;-68
2022/03/24 05:12:16;;;;;;;;;;;;;;;;;;5073695;28;787;-67
2022/03/24 05:14:44;;;;;;;;;;;;;;;;;;5070419;28;1483;-67
2022/03/24 05:17:10;;;;;;;;;;;;;;;;;;5073064;28;1980;-68
2022/03/24 05:19:36;;;;;;;;;;;;;;;;;;5073601;28;1049;-68
2022/03/24 05:22:02;;;;;;;;;;;;;;;;;;5073332;28;1304;-67
2022/03/24 05:24:29;;;;;;;;;;;;;;;;;;5073036;28;951;-67
2022/03/24 05:26:55;;;;;;;;;;;;;;;;;;5072952;28;859;-67
2022/03/24 05:29:21;;;;;;;;;;;;;;;;;;5073562;28;868;-67
2022/03/24 05:31:50;;;;;;;;;;;;;;;;;;5073248;28;1329;-67
2022/03/24 05:34:16;;;;;;;;;;;;;;;;;;5073552;28;1092;-67
2022/03/24 05:36:42;;;;;;;;;;;;;;;;;;5073175;28;935;-68
2022/03/24 05:39:09;;;;;;;;;;;;;;;;;;5072552;28;2194;-67
2022/03/24 05:41:36;;;;;;;;;;;;;;;;;;5058084;28;1448;-68
2022/03/24 05:44:06;;;;;;;;;;;;;;;;;;5052737;28;966;-68
2022/03/24 05:46:32;;;;;;;;;;;;;;;;;;5052639;28;955;-69
2022/03/24 05:49:00;;;;;;;;;;;;;;;;;;5052920;28;1116;-66
2022/03/24 05:51:45;;;;;;;;;;;;;;;;;;5052881;28;1336;-67
2022/03/24 05:54:12;;;;;;;;;;;;;;;;;;5052944;28;1058;-66
2022/03/24 05:56:38;;;;;;;;;;;;;;;;;;5052435;28;1062;-66
2022/03/24 05:59:04;;;;;;;;;;;;;;;;;;5052620;28;1914;-67
2022/03/24 06:01:30;;;;;;;;;;;;;;;;;;5052552;28;1332;-66
2022/03/24 06:03:57;;;;;;;;;;;;;;;;;;5052599;28;1069;-67
2022/03/24 06:06:25;;;;;;;;;;;;;;;;;;5052150;28;875;-65
2022/03/24 06:08:52;;;;;;;;;;;;;;;;;;5052564;28;803;-67
2022/03/24 06:11:19;;;;;;;;;;;;;;;;;;5052395;28;1387;-67
2022/03/24 06:13:45;;;;;;;;;;;;;;;;;;5034896;28;1067;-67
2022/03/24 06:16:13;;;;;;;;;;;;;;;;;;5052176;28;1085;-67
2022/03/24 06:18:40;;;;;;;;;;;;;;;;;;5034713;28;1922;-67
2022/03/24 06:21:07;;;;;;;;;;;;;;;;;;5051485;28;1396;-67
2022/03/24 06:23:34;;;;;;;;;;;;;;;;;;5052112;28;796;-67
2022/03/24 06:26:01;;;;;;;;;;;;;;;;;;5052137;28;1073;-69
2022/03/24 06:28:27;;;;;;;;;;;;;;;;;;5052094;28;802;-68
2022/03/24 06:30:54;;;;;;;;;;;;;;;;;;5052069;28;1420;-68
2022/03/24 06:33:20;;;;;;;;;;;;;;;;;;5052717;28;1074;-67
2022/03/24 06:35:47;;;;;;;;;;;;;;;;;;5052115;28;1009;-65
2022/03/24 06:38:13;;;;;;;;;;;;;;;;;;5033906;28;1922;-67
2022/03/24 06:40:41;;;;;;;;;;;;;;;;;;5050825;28;1328;-69
2022/03/24 06:43:08;;;;;;;;;;;;;;;;;;5050194;28;853;-68
2022/03/24 06:45:34;;;;;;;;;;;;;;;;;;5050021;28;872;-69
2022/03/24 06:48:00;;;;;;;;;;;;;;;;;;5031885;28;1136;-68
2022/03/24 06:50:27;;;;;;;;;;;;;;;;;;5049985;28;1269;-67
2022/03/24 06:52:53;;;;;;;;;;;;;;;;;;5049967;28;1133;-68
2022/03/24 06:55:19;;;;;;;;;;;;;;;;;;5049891;28;967;-68
2022/03/24 06:57:47;;;;;;;;;;;;;;;;;;5050929;28;1914;-67
2022/03/24 07:00:15;;;;;;;;;;;;;;;;;;5051288;28;1343;-68
2022/03/24 07:02:41;;;;;;;;;;;;;;;;;;5051387;28;1242;-68
2022/03/24 07:05:08;;;;;;;;;;;;;;;;;;5051184;28;1145;-68
2022/03/24 07:07:34;;;;;;;;;;;;;;;;;;5051160;28;1022;-67
2022/03/24 07:10:00;;;;;;;;;;;;;;;;;;5053707;28;1532;-68
2022/03/24 07:12:26;;;;;;;;;;;;;;;;;;5051390;28;1207;-68
2022/03/24 07:14:54;;;;;;;;;;;;;;;;;;5051329;28;1085;-68
2022/03/24 07:17:21;;;;;;;;;;;;;;;;;;5050932;28;1118;-68
2022/03/24 07:19:47;;;;;;;;;;;;;;;;;;5051057;28;1987;-68
2022/03/24 07:22:14;;;;;;;;;;;;;;;;;;5051081;28;1393;-67
2022/03/24 07:24:40;;;;;;;;;;;;;;;;;;5051066;28;1058;-68
2022/03/24 07:27:06;;;;;;;;;;;;;;;;;;5050677;28;855;-68
2022/03/24 07:29:33;;;;;;;;;;;;;;;;;;5051197;28;842;-67
2022/03/24 07:32:00;;;;;;;;;;;;;;;;;;5051011;28;1312;-68
2022/03/24 07:34:27;;;;;;;;;;;;;;;;;;5050888;28;828;-69
2022/03/24 07:36:53;;;;;;;;;;;;;;;;;;5050476;28;1140;-67
2022/03/24 07:39:19;;;;;;;;;;;;;;;;;;5050766;28;1930;-67
2022/03/24 07:41:45;;;;;;;;;;;;;;;;;;5050639;28;1376;-68
2022/03/24 07:44:11;;;;;;;;;;;;;;;;;;5050942;28;1077;-69
2022/03/24 07:46:38;;;;;;;;;;;;;;;;;;5050682;28;1299;-68
2022/03/24 07:49:05;;;;;;;;;;;;;;;;;;5050613;28;899;-67
2022/03/24 07:51:32;;;;;;;;;;;;;;;;;;5050649;28;1292;-68
2022/03/24 07:53:59;;;;;;;;;;;;;;;;;;5050434;28;1085;-68
2022/03/24 07:56:26;;;;;;;;;;;;;;;;;;5050454;28;1074;-68
2022/03/24 07:58:52;;;;;;;;;;;;;;;;;;5050615;28;1977;-67
2022/03/24 08:01:24;;;;;;;;;;;;;;;;;;5050586;28;1395;-69
2022/03/24 08:03:51;;;;;;;;;;;;;;;;;;5050442;28;1136;-68
2022/03/24 08:06:18;;;;;;;;;;;;;;;;;;5050278;28;907;-67
2022/03/24 08:08:45;;;;;;;;;;;;;;;;;;5050340;28;1132;-68
2022/03/24 08:11:11;;;;;;;;;;;;;;;;;;5049913;28;1332;-69
2022/03/24 08:13:37;;;;;;;;;;;;;;;;;;5050571;28;887;-67
2022/03/24 08:16:05;;;;;;;;;;;;;;;;;;5050262;28;885;-67
2022/03/24 08:18:31;;;;;;;;;;;;;;;;;;5050414;28;1969;-68
2022/03/24 08:20:57;;;;;;;;;;;;;;;;;;5050772;28;1269;-69
2022/03/24 08:23:24;;;;;;;;;;;;;;;;;;5050305;28;1132;-68
2022/03/24 08:25:51;;;;;;;;;;;;;;;;;;5050219;28;796;-70
2022/03/24 08:28:17;;;;;;;;;;;;;;;;;;5049975;28;943;-69
2022/03/24 08:30:45;;;;;;;;;;;;;;;;;;5050131;28;1380;-69
2022/03/24 08:33:11;;;;;;;;;;;;;;;;;;5050199;28;1102;-69
2022/03/24 08:35:37;;;;;;;;;;;;;;;;;;5050272;28;1046;-69
2022/03/24 08:38:04;;;;;;;;;;;;;;;;;;5049870;28;1914;-70
2022/03/24 08:40:31;;;;;;;;;;;;;;;;;;5050148;28;1315;-70
2022/03/24 08:42:57;;;;;;;;;;;;;;;;;;5057094;28;2078;-69
2022/03/24 08:45:24;;;;;;;;;;;;;;;;;;5068708;28;1058;-70
2022/03/24 08:47:50;;;;;;;;;;;;;;;;;;5070425;28;1170;-69
2022/03/24 08:50:16;;;;;;;;;;;;;;;;;;5073929;28;1347;-68
2022/03/24 08:52:42;;;;;;;;;;;;;;;;;;5073998;28;892;-68
2022/03/24 08:55:09;;;;;;;;;;;;;;;;;;5074138;28;1101;-68
2022/03/24 08:57:37;;;;;;;;;;;;;;;;;;5073587;28;1383;-68
2022/03/24 09:00:07;;;;;;;;;;;;;;;;;;5073574;28;1918;-70
2022/03/24 09:02:34;;;;;;;;;;;;;;;;;;5073804;28;1132;-69
2022/03/24 09:05:01;;;;;;;;;;;;;;;;;;5073452;28;1065;-69
2022/03/24 09:07:27;;;;;;;;;;;;;;;;;;5052059;28;1468;-69
2022/03/24 09:09:53;;;;;;;;;;;;;;;;;;5053675;28;1361;-69
2022/03/24 09:12:20;;;;;;;;;;;;;;;;;;5053661;28;888;-68
2022/03/24 09:14:47;;;;;;;;;;;;;;;;;;5053693;28;1013;-69
2022/03/24 09:17:13;;;;;;;;;;;;;;;;;;5053217;28;1061;-68
2022/03/24 09:19:40;;;;;;;;;;;;;;;;;;5053494;28;1914;-69
2022/03/24 09:22:06;;;;;;;;;;;;;;;;;;5053513;28;1367;-69
2022/03/24 09:24:32;;;;;;;;;;;;;;;;;;5053241;28;880;-68
2022/03/24 09:26:58;;;;;;;;;;;;;;;;;;5053165;28;1124;-69
2022/03/24 09:29:25;;;;;;;;;;;;;;;;;;5053472;28;757;-68
2022/03/24 09:31:52;;;;;;;;;;;;;;;;;;5053065;28;1270;-69
2022/03/24 09:34:18;;;;;;;;;;;;;;;;;;5053258;28;848;-69
2022/03/24 09:36:44;;;;;;;;;;;;;;;;;;5052975;28;1077;-68
2022/03/24 09:39:11;;;;;;;;;;;;;;;;;;5053078;28;1972;-69
2022/03/24 09:41:38;;;;;;;;;;;;;;;;;;5052713;28;1252;-69
2022/03/24 09:44:05;;;;;;;;;;;;;;;;;;5052791;28;1084;-70
2022/03/24 09:46:32;;;;;;;;;;;;;;;;;;5052947;28;1140;-69
2022/03/24 09:49:00;;;;;;;;;;;;;;;;;;5052989;28;844;-69
2022/03/24 09:51:26;;;;;;;;;;;;;;;;;;5052849;28;1297;-70
2022/03/24 09:53:52;;;;;;;;;;;;;;;;;;5052765;28;955;-69
2022/03/24 09:56:19;;;;;;;;;;;;;;;;;;5050931;28;1057;-69
2022/03/24 09:58:45;;;;;;;;;;;;;;;;;;5052522;28;2002;-69
2022/03/24 10:01:13;;;;;;;;;;;;;;;;;;5052516;28;1316;-68
2022/03/24 10:03:39;;;;;;;;;;;;;;;;;;5052658;28;1077;-68
2022/03/24 10:06:09;;;;;;;;;;;;;;;;;;5052402;28;1077;-67
2022/03/24 10:08:35;;;;;;;;;;;;;;;;;;5034453;28;938;-69
2022/03/24 10:11:02;;;;;;;;;;;;;;;;;;5053519;28;1246;-68
2022/03/24 10:13:41;;;;;;;;;;;;;;;;;;5052240;28;1065;-67
2022/03/24 10:16:07;;;;;;;;;;;;;;;;;;5051700;28;1307;-67
2022/03/24 10:18:34;;;;;;;;;;;;;;;;;;5052149;28;935;-68
2022/03/24 10:21:01;;;;;;;;;;;;;;;;;;5052242;28;1985;-68
2022/03/24 10:23:28;;;;;;;;;;;;;;;;;;5052167;28;1006;-68
2022/03/24 10:25:54;;;;;;;;;;;;;;;;;;5052014;28;1430;-68
2022/03/24 10:28:24;;;;;;;;;;;;;;;;;;5052135;28;881;-68
2022/03/24 10:30:51;;;;;;;;;;;;;;;;;;5051953;28;1380;-69
2022/03/24 10:33:27;;;;;;;;;;;;;;;;;;5052036;28;931;-67
2022/03/24 10:36:09;;;;;;;;;;;;;;;;;;5052164;28;785;-67
2022/03/24 10:38:39;;;;;;;;;;;;;;;;;;5053285;28;2202;-68
2022/03/24 10:41:12;;;;;;;;;;;;;;;;;;5053434;28;1993;-68
2022/03/24 10:43:39;;;;;;;;;;;;;;;;;;5071878;28;1057;-68
2022/03/24 10:46:09;;;;;;;;;;;;;;;;;;5071640;28;1074;-66
2022/03/24 10:48:35;;;;;;;;;;;;;;;;;;5071747;28;1444;-68
2022/03/24 10:51:01;;;;;;;;;;;;;;;;;;5071673;28;1257;-68
2022/03/24 10:53:27;;;;;;;;;;;;;;;;;;5071547;28;863;-67
2022/03/24 10:55:58;;;;;;;;;;;;;;;;;;5071561;28;753;-68
2022/03/24 10:58:26;;;;;;;;;;;;;;;;;;5071317;28;911;-68
2022/03/24 11:00:53;;;;;;;;;;;;;;;;;;5068244;28;1921;-68
2022/03/24 11:03:19;;;;;;;;;;;;;;;;;;5071581;28;810;-68
2022/03/24 11:05:46;;;;;;;;;;;;;;;;;;5071619;28;951;-68
2022/03/24 11:08:15;;;;;;;;;;;;;;;;;;5070725;28;870;-67
2022/03/24 11:10:43;;;;;;;;;;;;;;;;;;5071050;28;1287;-68
2022/03/24 11:13:10;;;;;;;;;;;;;;;;;;5071377;28;950;-68
2022/03/24 11:15:39;;;;;;;;;;;;;;;;;;5071257;28;1190;-68
2022/03/24 11:18:05;;;;;;;;;;;;;;;;;;5070679;28;1112;-69
2022/03/24 11:20:36;;;;;;;;;;;;;;;;;;5071016;28;1918;-68
2022/03/24 11:23:03;;;;;;;;;;;;;;;;;;5071298;28;994;-68
2022/03/24 11:25:29;;;;;;;;;;;;;;;;;;5071154;28;789;-68
2022/03/24 11:27:55;;;;;;;;;;;;;;;;;;5070457;28;871;-68
2022/03/24 11:30:24;;;;;;;;;;;;;;;;;;5070839;28;1283;-67
2022/03/24 11:32:51;;;;;;;;;;;;;;;;;;5070899;28;1061;-68
2022/03/24 11:35:17;;;;;;;;;;;;;;;;;;5070905;28;1066;-68
2022/03/24 11:37:44;;;;;;;;;;;;;;;;;;5070640;28;887;-68
2022/03/24 11:40:11;;;;;;;;;;;;;;;;;;5070585;28;1918;-68
2022/03/24 11:42:39;;;;;;;;;;;;;;;;;;5070740;28;1113;-68
2022/03/24 11:45:08;;;;;;;;;;;;;;;;;;5070580;28;1117;-67
2022/03/24 11:47:49;;;;;;;;;;;;;;;;;;5070467;28;1109;-68
2022/03/24 11:50:17;;;;;;;;;;;;;;;;;;5070429;28;1302;-67
2022/03/24 11:52:44;;;;;;;;;;;;;;;;;;5070295;28;1077;-68
2022/03/24 11:55:13;;;;;;;;;;;;;;;;;;5070537;28;1112;-68
2022/03/24 11:57:39;;;;;;;;;;;;;;;;;;5070520;28;1009;-68
2022/03/24 12:00:20;;;;;;;;;;;;;;;;;;5070429;28;1973;-68
2022/03/24 12:02:51;;;;;;;;;;;;;;;;;;5040014;28;1957;-68
2022/03/24 12:05:18;;;;;;;;;;;;;;;;;;5070488;28;1066;-68
2022/03/24 12:07:47;;;;;;;;;;;;;;;;;;5070101;28;887;-68
2022/03/24 12:10:14;;;;;;;;;;;;;;;;;;5070055;28;1306;-68
2022/03/24 12:12:59;;;;;;;;;;;;;;;;;;5070555;28;832;-68
2022/03/24 12:15:25;;;;;;;;;;;;;;;;;;5069057;28;938;-68
2022/03/24 12:18:02;;;;;;;;;;;;;;;;;;5069359;28;1069;-68
2022/03/24 12:20:29;;;;;;;;;;;;;;;;;;5070123;28;1984;-69
2022/03/24 12:22:59;;;;;;;;;;;;;;;;;;5070715;28;1007;-68
2022/03/24 12:25:29;;;;;;;;;;;;;;;;;;5070497;28;1078;-68
2022/03/24 12:28:00;;;;;;;;;;;;;;;;;;5070101;28;947;-68
2022/03/24 12:30:27;;;;;;;;;;;;;;;;;;5069870;28;1313;-68
2022/03/24 12:33:05;;;;;;;;;;;;;;;;;;5070280;28;800;-68
2022/03/24 12:35:41;;;;;;;;;;;;;;;;;;5070420;28;1109;-68
2022/03/24 12:38:20;;;;;;;;;;;;;;;;;;5069830;28;931;-68
2022/03/24 12:41:15;;;;;;;;;;;;;;;;;;5069924;28;1910;-68
2022/03/24 12:43:43;;;;;;;;;;;;;;;;;;5070242;28;861;-68
2022/03/24 12:46:19;;;;;;;;;;;;;;;;;;5069772;28;788;-68
2022/03/24 12:48:46;;;;;;;;;;;;;;;;;;5069703;28;979;-68
2022/03/24 12:51:19;;;;;;;;;;;;;;;;;;5069880;28;1262;-68
2022/03/24 12:53:49;;;;;;;;;;;;;;;;;;5066799;28;1503;-68
2022/03/24 12:56:26;;;;;;;;;;;;;;;;;;5069561;28;1010;-69
2022/03/24 12:58:53;;;;;;;;;;;;;;;;;;5070203;28;1076;-69
2022/03/24 13:01:19;;;;;;;;;;;;;;;;;;5069766;28;1922;-68
2022/03/24 13:03:47;;;;;;;;;;;;;;;;;;5069917;28;1033;-68
2022/03/24 13:06:13;;;;;;;;;;;;;;;;;;5068266;28;1291;-69
2022/03/24 13:08:39;;;;;;;;;;;;;;;;;;5069954;28;769;-68
2022/03/24 13:11:05;;;;;;;;;;;;;;;;;;5069717;28;1301;-68
2022/03/24 13:13:31;;;;;;;;;;;;;;;;;;5070273;28;951;-67
2022/03/24 13:15:58;;;;;;;;;;;;;;;;;;5069923;28;1077;-68
2022/03/24 13:18:24;;;;;;;;;;;;;;;;;;5069569;28;1049;-69
2022/03/24 13:20:53;;;;;;;;;;;;;;;;;;5069687;28;1943;-68
2022/03/24 13:23:20;;;;;;;;;;;;;;;;;;5069769;28;1160;-68
2022/03/24 13:25:48;;;;;;;;;;;;;;;;;;5069675;28;1002;-68
2022/03/24 13:28:15;;;;;;;;;;;;;;;;;;5069454;28;1042;-68
2022/03/24 13:30:42;;;;;;;;;;;;;;;;;;5071984;28;1379;-68
2022/03/24 13:33:09;;;;;;;;;;;;;;;;;;5073750;28;1085;-67
2022/03/24 13:35:37;;;;;;;;;;;;;;;;;;5073334;28;1034;-69
2022/03/24 13:38:05;;;;;;;;;;;;;;;;;;5073299;28;867;-69
2022/03/24 13:40:33;;;;;;;;;;;;;;;;;;5073019;28;1989;-69
2022/03/24 13:42:59;;;;;;;;;;;;;;;;;;5073102;28;1049;-69
2022/03/24 13:45:26;;;;;;;;;;;;;;;;;;5072803;28;966;-69
2022/03/24 13:47:55;;;;;;;;;;;;;;;;;;5072816;28;1062;-69
2022/03/24 13:50:22;;;;;;;;;;;;;;;;;;5073756;28;1286;-69
2022/03/24 13:52:51;;;;;;;;;;;;;;;;;;5073218;28;1085;-69
2022/03/24 13:55:19;;;;;;;;;;;;;;;;;;5073176;28;1066;-68
2022/03/24 13:57:46;;;;;;;;;;;;;;;;;;5072794;28;1117;-69
2022/03/24 14:00:13;;;;;;;;;;;;;;;;;;5072789;28;1907;-69
2022/03/24 14:02:39;;;;;;;;;;;;;;;;;;5072649;28;1077;-69
2022/03/24 14:05:07;;;;;;;;;;;;;;;;;;5072816;28;907;-69
2022/03/24 14:07:33;;;;;;;;;;;;;;;;;;5072684;28;1034;-68
2022/03/24 14:09:59;;;;;;;;;;;;;;;;;;5072508;28;1335;-69
2022/03/24 14:12:28;;;;;;;;;;;;;;;;;;5072702;28;1057;-69
2022/03/24 14:14:54;;;;;;;;;;;;;;;;;;5072540;28;1077;-68
2022/03/24 14:17:24;;;;;;;;;;;;;;;;;;5072130;28;1117;-69
2022/03/24 14:19:54;;;;;;;;;;;;;;;;;;5072501;28;899;-69
2022/03/24 14:22:21;;;;;;;;;;;;;;;;;;5072516;28;947;-69
2022/03/24 14:24:50;;;;;;;;;;;;;;;;;;5072498;28;1085;-68
2022/03/24 14:27:17;;;;;;;;;;;;;;;;;;5072048;28;1108;-69
2022/03/24 14:29:59;;;;;;;;;;;;;;;;;;5072338;28;920;-69
2022/03/24 14:32:26;;;;;;;;;;;;;;;;;;5072093;28;1315;-68
2022/03/24 14:35:06;;;;;;;;;;;;;;;;;;5072327;28;947;-69
2022/03/24 14:37:38;;;;;;;;;;;;;;;;;;5071779;28;1062;-69
2022/03/24 14:40:05;;;;;;;;;;;;;;;;;;5071797;28;1306;-68
2022/03/24 14:42:31;;;;;;;;;;;;;;;;;;5069119;28;1966;-67
2022/03/24 14:44:58;;;;;;;;;;;;;;;;;;5063985;28;1289;-68
2022/03/24 14:47:24;;;;;;;;;;;;;;;;;;5067078;28;1483;-68
2022/03/24 14:49:52;;;;;;;;;;;;;;;;;;5071896;28;835;-67
2022/03/24 14:52:18;;;;;;;;;;;;;;;;;;5071734;28;1985;-67
2022/03/24 14:54:44;;;;;;;;;;;;;;;;;;5071808;28;1096;-67
2022/03/24 14:57:10;;;;;;;;;;;;;;;;;;5071628;28;1065;-68
2022/03/24 14:59:37;;;;;;;;;;;;;;;;;;5071610;28;962;-68
2022/03/24 15:02:03;;;;;;;;;;;;;;;;;;5071700;28;1306;-67
2022/03/24 15:04:29;;;;;;;;;;;;;;;;;;5071545;28;1112;-67
2022/03/24 15:06:57;;;;;;;;;;;;;;;;;;5071048;28;800;-68
2022/03/24 15:09:23;;;;;;;;;;;;;;;;;;5071358;28;962;-68
2022/03/24 15:11:49;;;;;;;;;;;;;;;;;;5071018;28;1909;-67
2022/03/24 15:16:59;;;;;;;;;;;;;;;;;;5070967;28;1154;-67
2022/03/24 15:19:25;;;;;;;;;;;;;;;;;;5071382;28;974;-67
2022/03/24 15:21:52;;;;;;;;;;;;;;;;;;5070871;28;1373;-67
2022/03/24 15:24:19;;;;;;;;;;;;;;;;;;5070953;28;690;-67
2022/03/24 15:26:45;;;;;;;;;;;;;;;;;;5070820;28;973;-67
2022/03/24 15:29:11;;;;;;;;;;;;;;;;;;5070977;28;1114;-67
2022/03/24 15:31:39;;;;;;;;;;;;;;;;;;5070795;28;1983;-67
2022/03/24 15:34:06;;;;;;;;;;;;;;;;;;5071322;28;793;-68
2022/03/24 15:36:32;;;;;;;;;;;;;;;;;;5070834;28;757;-67
2022/03/24 15:38:58;;;;;;;;;;;;;;;;;;5070572;28;1077;-67
2022/03/24 15:41:25;;;;;;;;;;;;;;;;;;5070833;28;1278;-67
2022/03/24 15:43:53;;;;;;;;;;;;;;;;;;5070696;28;788;-67
2022/03/24 15:46:19;;;;;;;;;;;;;;;;;;5070517;28;1089;-67
2022/03/24 15:48:45;;;;;;;;;;;;;;;;;;5069599;28;951;-67
2022/03/24 15:51:12;;;;;;;;;;;;;;;;;;5070662;28;1969;-67
2022/03/24 15:53:38;;;;;;;;;;;;;;;;;;5070495;28;1065;-67
2022/03/24 15:56:05;;;;;;;;;;;;;;;;;;5070369;28;1038;-67
2022/03/24 15:58:33;;;;;;;;;;;;;;;;;;5070718;28;1033;-67
2022/03/24 16:01:00;;;;;;;;;;;;;;;;;;5070452;28;1285;-67
2022/03/24 16:03:26;;;;;;;;;;;;;;;;;;5070393;28;793;-67
2022/03/24 16:05:52;;;;;;;;;;;;;;;;;;5070625;28;1061;-67
2022/03/24 16:08:18;;;;;;;;;;;;;;;;;;5070158;28;1121;-67
2022/03/24 16:10:45;;;;;;;;;;;;;;;;;;5070018;28;1913;-67
2022/03/24 16:13:11;;;;;;;;;;;;;;;;;;5070289;28;1026;-67
2022/03/24 16:15:38;;;;;;;;;;;;;;;;;;5077689;22;3512;-71
2022/03/24 16:18:05;;;;;;;;;;;;;;;;;;5052006;28;1256;-71
2022/03/24 16:20:31;;;;;;;;;;;;;;;;;;5062410;28;1141;-71
2022/03/24 16:23:00;;;;;;;;;;;;;;;;;;5071081;28;769;-70
2022/03/24 16:25:27;;;;;;;;;;;;;;;;;;5052696;28;1357;-71
2022/03/24 16:27:53;;;;;;;;;;;;;;;;;;5052412;28;1107;-71
2022/03/24 16:30:20;;;;;;;;;;;;;;;;;;5070979;28;721;-71
2022/03/24 16:32:47;;;;;;;;;;;;;;;;;;5070446;28;1918;-71
2022/03/24 16:35:14;;;;;;;;;;;;;;;;;;5052587;28;1377;-71
2022/03/24 16:37:40;;;;;;;;;;;;;;;;;;5070144;28;1180;-69
2022/03/24 16:40:09;;;;;;;;;;;;;;;;;;5070508;28;781;-70
2022/03/24 16:42:35;;;;;;;;;;;;;;;;;;5070688;28;1117;-71
2022/03/24 16:45:01;;;;;;;;;;;;;;;;;;5070434;28;1299;-70
2022/03/24 16:47:27;;;;;;;;;;;;;;;;;;5070258;28;1117;-69
2022/03/24 16:49:55;;;;;;;;;;;;;;;;;;5070317;28;1017;-71
2022/03/24 16:52:21;;;;;;;;;;;;;;;;;;5055556;28;1921;-70
2022/03/24 16:54:48;;;;;;;;;;;;;;;;;;5030035;28;1385;-70
2022/03/24 16:57:14;;;;;;;;;;;;;;;;;;5030010;28;1125;-70
2022/03/24 16:59:40;;;;;;;;;;;;;;;;;;5030539;28;867;-70
2022/03/24 17:02:06;;;;;;;;;;;;;;;;;;5030421;28;1062;-70
2022/03/24 17:04:33;;;;;;;;;;;;;;;;;;5031030;28;900;-70
2022/03/24 17:07:01;;;;;;;;;;;;;;;;;;5034036;28;1287;-70
2022/03/24 17:09:27;;;;;;;;;;;;;;;;;;5034663;28;1077;-70
2022/03/24 17:11:53;;;;;;;;;;;;;;;;;;5033816;28;1984;-70